Time;durP1;ratioP1;P1;durP2;ratioP2;P2;SDS_P1;SDS_P2;PMS_P1;PMS_P2;Temp;Humidity;BMP_temperature;BMP_pressure;BME280_temperature;BME280_humidity;BME280_pressure;Samples;Min_cycle;Max_cycle;Signal;HPM_P1;HPM_P2
2021/01/10 00:02:24;;;;;;;11.77;5.97;;;;;;;;;;5074608;28;20786;-75
2021/01/10 00:04:50;;;;;;;13.70;6.70;;;;;;;;;;5076089;28;20451;-74
2021/01/10 00:07:16;;;;;;;12.53;6.80;;;;;;;;;;5070969;28;20839;-73
2021/01/10 00:09:42;;;;;;;10.17;6.30;;;;;;;;;;5055946;28;20455;-74
2021/01/10 00:12:08;;;;;;;15.93;7.53;;;;;;;;;;5058417;28;20450;-74
2021/01/10 00:14:34;;;;;;;10.50;6.20;;;;;;;;;;5075771;28;20408;-75
2021/01/10 00:17:00;;;;;;;16.60;7.97;;;;;;;;;;5074862;28;20744;-74
2021/01/10 00:19:26;;;;;;;18.30;7.17;;;;;;;;;;5076006;28;20401;-74
2021/01/10 00:21:53;;;;;;;16.93;8.10;;;;;;;;;;5073478;28;20448;-74
2021/01/10 00:24:19;;;;;;;14.40;6.77;;;;;;;;;;5075600;28;20841;-73
2021/01/10 00:26:45;;;;;;;16.20;7.77;;;;;;;;;;5075488;28;20774;-75
2021/01/10 00:29:11;;;;;;;15.10;9.00;;;;;;;;;;5072648;28;20433;-74
2021/01/10 00:31:37;;;;;;;18.40;9.77;;;;;;;;;;5055254;28;20825;-74
2021/01/10 00:34:03;;;;;;;15.40;9.30;;;;;;;;;;5073076;28;20426;-74
2021/01/10 00:36:36;;;;;;;20.73;11.37;;;;;;;;;;5075541;28;20867;-75
2021/01/10 00:39:05;;;;;;;18.50;10.17;;;;;;;;;;5057264;28;20844;-74
2021/01/10 00:41:38;;;;;;;20.70;10.80;;;;;;;;;;5055506;28;20431;-74
2021/01/10 00:44:04;;;;;;;21.53;9.00;;;;;;;;;;5072249;28;20436;-75
2021/01/10 00:46:33;;;;;;;16.20;8.20;;;;;;;;;;5075725;28;20895;-74
2021/01/10 00:49:00;;;;;;;20.33;10.77;;;;;;;;;;5073977;28;20430;-75
2021/01/10 00:51:26;;;;;;;21.43;10.17;;;;;;;;;;5075283;28;21018;-74
2021/01/10 00:53:52;;;;;;;19.57;10.50;;;;;;;;;;5058865;28;20453;-74
2021/01/10 00:56:18;;;;;;;25.80;11.40;;;;;;;;;;5054087;28;20509;-74
2021/01/10 00:58:44;;;;;;;17.83;10.83;;;;;;;;;;5055219;28;20855;-75
2021/01/10 01:01:10;;;;;;;24.10;10.63;;;;;;;;;;5055054;28;20505;-74
2021/01/10 01:03:36;;;;;;;18.97;11.20;;;;;;;;;;5067988;28;20436;-74
2021/01/10 01:06:03;;;;;;;23.67;10.90;;;;;;;;;;5075210;28;20405;-74
2021/01/10 01:08:28;;;;;;;24.27;11.57;;;;;;;;;;5074255;28;20426;-73
2021/01/10 01:10:54;;;;;;;23.40;12.00;;;;;;;;;;5074894;28;20452;-74
2021/01/10 01:13:21;;;;;;;23.00;10.50;;;;;;;;;;5074130;28;20446;-75
2021/01/10 01:15:53;;;;;;;20.30;10.83;;;;;;;;;;5074678;28;20420;-74
2021/01/10 01:18:19;;;;;;;26.00;11.73;;;;;;;;;;5064597;28;20815;-74
2021/01/10 01:20:45;;;;;;;15.60;9.83;;;;;;;;;;5054644;28;20407;-74
2021/01/10 01:23:11;;;;;;;23.00;9.13;;;;;;;;;;5062823;28;20474;-75
2021/01/10 01:25:37;;;;;;;19.13;10.13;;;;;;;;;;5074594;28;20410;-74
2021/01/10 01:28:04;;;;;;;17.50;9.70;;;;;;;;;;5066575;28;20429;-74
2021/01/10 01:30:30;;;;;;;19.20;11.70;;;;;;;;;;5054430;28;20473;-74
2021/01/10 01:32:56;;;;;;;20.03;11.20;;;;;;;;;;5059824;28;20934;-74
2021/01/10 01:35:22;;;;;;;12.47;8.33;;;;;;;;;;5072935;28;20522;-74
2021/01/10 01:37:48;;;;;;;28.17;11.10;;;;;;;;;;5054605;28;20777;-74
2021/01/10 01:40:14;;;;;;;22.60;10.20;;;;;;;;;;5072183;28;20413;-74
2021/01/10 01:42:40;;;;;;;17.43;10.57;;;;;;;;;;5073416;28;20453;-74
2021/01/10 01:45:07;;;;;;;17.70;10.17;;;;;;;;;;5074260;28;20805;-74
2021/01/10 01:47:34;;;;;;;22.07;10.00;;;;;;;;;;5073240;28;20399;-74
2021/01/10 01:50:00;;;;;;;18.13;10.57;;;;;;;;;;5073864;28;20417;-74
2021/01/10 01:52:26;;;;;;;28.30;11.53;;;;;;;;;;5057436;28;20467;-74
2021/01/10 01:54:53;;;;;;;21.80;10.53;;;;;;;;;;5073640;28;20773;-73
2021/01/10 01:57:19;;;;;;;24.07;11.77;;;;;;;;;;5073920;28;20804;-74
2021/01/10 01:59:46;;;;;;;16.27;9.03;;;;;;;;;;5072384;28;20407;-74
2021/01/10 02:02:12;;;;;;;14.07;8.47;;;;;;;;;;5073824;28;20814;-74
2021/01/10 02:04:56;;;;;;;22.33;9.90;;;;;;;;;;5071676;28;20421;-74
2021/01/10 02:07:25;;;;;;;15.70;8.40;;;;;;;;;;5073528;28;20401;-74
2021/01/10 02:09:54;;;;;;;19.63;9.67;;;;;;;;;;5054986;28;20916;-74
2021/01/10 02:12:21;;;;;;;16.70;10.13;;;;;;;;;;5053300;28;20520;-74
2021/01/10 02:14:51;;;;;;;19.70;11.40;;;;;;;;;;5053362;28;20433;-73
2021/01/10 02:17:17;;;;;;;16.57;8.90;;;;;;;;;;5053424;28;20426;-73
2021/01/10 02:19:52;;;;;;;13.93;8.57;;;;;;;;;;5053292;28;20429;-74
2021/01/10 02:22:19;;;;;;;18.40;10.17;;;;;;;;;;5053863;28;20441;-74
2021/01/10 02:24:48;;;;;;;19.90;8.90;;;;;;;;;;5069209;28;20421;-74
2021/01/10 02:27:14;;;;;;;18.30;10.83;;;;;;;;;;5073810;28;20902;-74
2021/01/10 02:29:40;;;;;;;19.00;9.53;;;;;;;;;;5072484;28;20425;-74
2021/01/10 02:32:07;;;;;;;24.93;11.80;;;;;;;;;;5073345;28;20453;-74
2021/01/10 02:34:34;;;;;;;20.37;9.50;;;;;;;;;;5072350;28;20831;-74
2021/01/10 02:37:12;;;;;;;21.87;11.00;;;;;;;;;;5073677;28;20911;-74
2021/01/10 02:39:50;;;;;;;23.83;12.07;;;;;;;;;;5061025;28;20422;-74
2021/01/10 02:42:22;;;;;;;21.30;10.43;;;;;;;;;;5067600;28;20954;-74
2021/01/10 02:44:59;;;;;;;16.23;8.27;;;;;;;;;;5071014;28;20444;-74
2021/01/10 02:47:26;;;;;;;15.70;9.10;;;;;;;;;;5073101;28;20463;-74
2021/01/10 02:49:52;;;;;;;18.40;10.87;;;;;;;;;;5071187;28;20424;-74
2021/01/10 02:52:18;;;;;;;24.33;11.80;;;;;;;;;;5072942;28;20437;-73
2021/01/10 02:54:44;;;;;;;19.57;12.10;;;;;;;;;;5072302;28;20418;-73
2021/01/10 02:57:17;;;;;;;23.70;14.23;;;;;;;;;;5073405;28;20810;-73
2021/01/10 02:59:44;;;;;;;21.60;10.83;;;;;;;;;;5071232;28;20425;-74
2021/01/10 03:02:11;;;;;;;26.97;14.30;;;;;;;;;;5071662;28;20484;-73
2021/01/10 03:04:37;;;;;;;29.37;14.57;;;;;;;;;;5071795;28;20842;-73
2021/01/10 03:07:04;;;;;;;25.33;11.90;;;;;;;;;;5072897;28;20405;-74
2021/01/10 03:09:31;;;;;;;25.37;12.60;;;;;;;;;;5065345;28;20525;-74
2021/01/10 03:12:12;;;;;;;21.70;12.53;;;;;;;;;;5051345;28;20458;-74
2021/01/10 03:14:42;;;;;;;33.07;14.10;;;;;;;;;;5052882;28;20940;-74
2021/01/10 03:17:09;;;;;;;22.20;10.63;;;;;;;;;;5055292;28;20542;-73
2021/01/10 03:19:35;;;;;;;22.73;11.67;;;;;;;;;;5073774;28;20419;-74
2021/01/10 03:22:01;;;;;;;25.63;11.47;;;;;;;;;;5076814;28;20497;-74
2021/01/10 03:24:27;;;;;;;29.67;15.30;;;;;;;;;;5075753;28;20858;-74
2021/01/10 03:26:53;;;;;;;27.07;13.67;;;;;;;;;;5076855;28;20406;-74
2021/01/10 03:29:19;;;;;;;31.17;13.67;;;;;;;;;;5075531;28;20833;-74
2021/01/10 03:31:45;;;;;;;25.10;13.80;;;;;;;;;;5076677;28;20516;-74
2021/01/10 03:34:11;;;;;;;19.57;10.87;;;;;;;;;;5075265;28;20825;-74
2021/01/10 03:36:37;;;;;;;26.60;10.20;;;;;;;;;;5076539;28;20403;-74
2021/01/10 03:39:03;;;;;;;24.73;11.30;;;;;;;;;;5073989;28;20844;-74
2021/01/10 03:41:29;;;;;;;19.20;10.10;;;;;;;;;;5056635;28;20495;-74
2021/01/10 03:43:55;;;;;;;35.03;14.37;;;;;;;;;;5056136;28;20447;-74
2021/01/10 03:46:21;;;;;;;25.27;12.10;;;;;;;;;;5076297;28;20405;-74
2021/01/10 03:48:47;;;;;;;22.77;12.23;;;;;;;;;;5076541;28;20401;-74
2021/01/10 03:51:13;;;;;;;26.93;13.27;;;;;;;;;;5060614;28;21137;-74
2021/01/10 03:53:39;;;;;;;21.97;11.60;;;;;;;;;;5076086;28;20402;-74
2021/01/10 03:56:05;;;;;;;19.80;11.03;;;;;;;;;;5074854;28;20421;-74
2021/01/10 03:58:31;;;;;;;17.67;12.53;;;;;;;;;;5076113;28;20409;-73
2021/01/10 04:00:57;;;;;;;24.10;12.80;;;;;;;;;;5074357;28;20417;-73
2021/01/10 04:03:23;;;;;;;25.17;14.23;;;;;;;;;;5075943;28;20497;-73
2021/01/10 04:05:49;;;;;;;20.43;10.83;;;;;;;;;;5060066;28;20449;-73
2021/01/10 04:08:15;;;;;;;23.27;11.50;;;;;;;;;;5056064;28;20430;-73
2021/01/10 04:10:41;;;;;;;28.17;12.87;;;;;;;;;;5056012;28;20536;-73
2021/01/10 04:13:07;;;;;;;26.70;14.17;;;;;;;;;;5055612;28;20431;-74
2021/01/10 04:15:33;;;;;;;21.73;10.53;;;;;;;;;;5066587;28;20428;-73
2021/01/10 04:17:59;;;;;;;32.70;13.63;;;;;;;;;;5071591;28;20402;-73
2021/01/10 04:20:25;;;;;;;28.33;11.77;;;;;;;;;;5074531;28;20432;-73
2021/01/10 04:22:51;;;;;;;23.80;10.47;;;;;;;;;;5075765;28;20434;-73
2021/01/10 04:25:18;;;;;;;28.37;12.80;;;;;;;;;;5073419;28;20428;-73
2021/01/10 04:27:44;;;;;;;20.97;13.50;;;;;;;;;;5074889;28;20410;-74
2021/01/10 04:30:10;;;;;;;31.60;12.60;;;;;;;;;;5073564;28;20514;-73
2021/01/10 04:32:36;;;;;;;24.97;11.90;;;;;;;;;;5075636;28;20423;-74
2021/01/10 04:35:03;;;;;;;26.70;11.50;;;;;;;;;;5074225;28;20428;-74
2021/01/10 04:37:29;;;;;;;17.53;9.07;;;;;;;;;;5075583;28;20497;-73
2021/01/10 04:39:55;;;;;;;19.73;11.40;;;;;;;;;;5073345;28;20407;-73
2021/01/10 04:42:22;;;;;;;24.77;14.30;;;;;;;;;;5055244;28;20802;-73
2021/01/10 04:44:48;;;;;;;28.03;12.67;;;;;;;;;;5055192;28;20430;-74
2021/01/10 04:47:14;;;;;;;28.23;11.50;;;;;;;;;;5075103;28;20409;-73
2021/01/10 04:49:41;;;;;;;24.83;10.77;;;;;;;;;;5075065;28;20406;-73
2021/01/10 04:52:07;;;;;;;21.80;10.90;;;;;;;;;;5073803;28;20495;-73
2021/01/10 04:54:36;;;;;;;23.00;12.10;;;;;;;;;;5075017;28;20411;-74
2021/01/10 04:57:03;;;;;;;32.43;12.77;;;;;;;;;;5073976;28;20414;-73
2021/01/10 04:59:30;;;;;;;23.83;12.60;;;;;;;;;;5074948;28;20405;-74
2021/01/10 05:02:00;;;;;;;18.97;11.90;;;;;;;;;;5066020;28;20445;-73
2021/01/10 05:04:27;;;;;;;24.60;11.47;;;;;;;;;;5070355;28;20464;-74
2021/01/10 05:06:54;;;;;;;19.97;11.13;;;;;;;;;;5072947;28;20445;-74
2021/01/10 05:09:20;;;;;;;24.10;11.40;;;;;;;;;;5075015;28;20460;-73
2021/01/10 05:11:46;;;;;;;24.07;10.53;;;;;;;;;;5073563;28;20471;-73
2021/01/10 05:14:12;;;;;;;35.23;12.40;;;;;;;;;;5074842;28;20437;-73
2021/01/10 05:16:38;;;;;;;31.10;13.60;;;;;;;;;;5074055;28;20501;-73
2021/01/10 05:19:04;;;;;;;17.13;8.43;;;;;;;;;;5074735;28;20773;-74
2021/01/10 05:21:32;;;;;;;19.30;10.40;;;;;;;;;;5074165;28;20446;-74
2021/01/10 05:23:58;;;;;;;20.77;11.50;;;;;;;;;;5074845;28;20894;-73
2021/01/10 05:26:34;;;;;;;26.90;11.00;;;;;;;;;;5073150;28;20424;-74
2021/01/10 05:29:05;;;;;;;23.20;10.97;;;;;;;;;;5074369;28;20463;-74
2021/01/10 05:31:35;;;;;;;15.90;8.80;;;;;;;;;;5073481;28;20472;-73
2021/01/10 05:34:01;;;;;;;25.13;14.50;;;;;;;;;;5074593;28;20391;-74
2021/01/10 05:36:31;;;;;;;18.17;10.73;;;;;;;;;;5072986;28;20937;-74
2021/01/10 05:38:58;;;;;;;18.37;9.57;;;;;;;;;;5074131;28;20449;-74
2021/01/10 05:41:26;;;;;;;18.97;9.50;;;;;;;;;;5062430;28;20446;-74
2021/01/10 05:44:02;;;;;;;22.20;11.17;;;;;;;;;;5054118;28;20426;-74
2021/01/10 05:46:30;;;;;;;22.77;10.97;;;;;;;;;;5064957;28;20425;-73
2021/01/10 05:48:57;;;;;;;23.13;10.80;;;;;;;;;;5074317;28;20715;-73
2021/01/10 05:51:28;;;;;;;16.93;10.00;;;;;;;;;;5062646;28;20466;-74
2021/01/10 05:53:54;;;;;;;30.07;10.93;;;;;;;;;;5052714;28;20907;-73
2021/01/10 05:56:20;;;;;;;16.20;10.40;;;;;;;;;;5053771;28;20499;-75
2021/01/10 05:58:54;;;;;;;20.47;10.53;;;;;;;;;;5054000;28;20401;-74
2021/01/10 06:01:21;;;;;;;21.13;10.10;;;;;;;;;;5063314;28;20874;-74
2021/01/10 06:03:47;;;;;;;24.80;10.60;;;;;;;;;;5073731;28;20856;-73
2021/01/10 06:06:13;;;;;;;25.57;10.73;;;;;;;;;;5064429;28;20934;-75
2021/01/10 06:08:40;;;;;;;21.03;11.77;;;;;;;;;;5055542;28;20440;-75
2021/01/10 06:11:21;;;;;;;22.33;11.70;;;;;;;;;;5072569;28;20449;-74
2021/01/10 06:13:47;;;;;;;24.00;11.50;;;;;;;;;;5073736;28;20504;-74
2021/01/10 06:16:14;;;;;;;18.90;9.80;;;;;;;;;;5069737;28;20733;-74
2021/01/10 06:18:42;;;;;;;23.40;12.30;;;;;;;;;;5053645;28;20435;-74
2021/01/10 06:21:12;;;;;;;21.83;11.90;;;;;;;;;;5055781;28;20427;-75
2021/01/10 06:23:38;;;;;;;19.33;10.50;;;;;;;;;;5072241;28;20456;-74
2021/01/10 06:26:04;;;;;;;21.47;11.40;;;;;;;;;;5069757;28;20409;-74
2021/01/10 06:28:32;;;;;;;16.23;11.30;;;;;;;;;;5053318;28;20475;-74
2021/01/10 06:30:59;;;;;;;20.27;10.40;;;;;;;;;;5053222;28;20450;-75
2021/01/10 06:33:30;;;;;;;19.83;8.37;;;;;;;;;;5053305;28;20398;-73
2021/01/10 06:36:01;;;;;;;23.97;11.70;;;;;;;;;;5053732;28;20882;-75
2021/01/10 06:38:31;;;;;;;18.20;9.60;;;;;;;;;;5053409;28;20384;-74
2021/01/10 06:41:12;;;;;;;15.23;11.23;;;;;;;;;;5053260;28;20956;-74
2021/01/10 06:43:42;;;;;;;19.30;11.30;;;;;;;;;;5053160;28;20455;-74
2021/01/10 06:46:08;;;;;;;16.37;8.67;;;;;;;;;;5054113;28;20777;-74
2021/01/10 06:48:34;;;;;;;18.10;9.07;;;;;;;;;;5073143;28;20402;-74
2021/01/10 06:51:02;;;;;;;22.43;10.73;;;;;;;;;;5071755;28;20457;-74
2021/01/10 06:53:28;;;;;;;21.63;10.20;;;;;;;;;;5053270;28;20412;-74
2021/01/10 06:55:54;;;;;;;22.60;10.87;;;;;;;;;;5052914;28;20407;-74
2021/01/10 06:58:20;;;;;;;25.63;9.87;;;;;;;;;;5071518;28;20434;-74
2021/01/10 07:00:56;;;;;;;24.47;9.73;;;;;;;;;;5071759;28;20410;-74
2021/01/10 07:03:23;;;;;;;20.60;8.73;;;;;;;;;;5070999;28;20422;-74
2021/01/10 07:06:12;;;;;;;27.27;8.53;;;;;;;;;;5072880;28;20402;-74
2021/01/10 07:08:39;;;;;;;20.07;9.97;;;;;;;;;;5072867;28;20379;-74
2021/01/10 07:11:23;;;;;;;22.27;10.20;;;;;;;;;;5074120;28;20499;-74
2021/01/10 07:13:49;;;;;;;20.47;10.20;;;;;;;;;;5076528;28;20393;-74
2021/01/10 07:16:19;;;;;;;21.27;11.37;;;;;;;;;;5074405;28;20405;-74
2021/01/10 07:18:52;;;;;;;23.33;10.93;;;;;;;;;;5062123;28;20424;-74
2021/01/10 07:21:29;;;;;;;26.07;11.53;;;;;;;;;;5053566;28;20423;-74
2021/01/10 07:24:20;;;;;;;17.20;9.90;;;;;;;;;;5053163;28;20402;-74
2021/01/10 07:26:52;;;;;;;27.80;10.80;;;;;;;;;;5057642;28;20423;-74
2021/01/10 07:29:31;;;;;;;18.03;10.77;;;;;;;;;;5071763;28;20405;-74
2021/01/10 07:32:06;;;;;;;17.00;10.03;;;;;;;;;;5068939;28;20569;-75
2021/01/10 07:34:33;;;;;;;25.50;12.67;;;;;;;;;;5071587;28;20418;-75
2021/01/10 07:37:00;;;;;;;16.73;8.43;;;;;;;;;;5068636;28;20428;-72
2021/01/10 07:39:28;;;;;;;21.10;9.53;;;;;;;;;;5071338;28;20445;-77
2021/01/10 07:42:14;;;;;;;24.03;11.93;;;;;;;;;;5071359;28;22519;-74
2021/01/10 07:44:52;;;;;;;24.03;9.70;;;;;;;;;;5093284;22;20988;-73
2021/01/10 07:47:19;;;;;;;25.83;10.80;;;;;;;;;;5069115;28;20434;-74
2021/01/10 07:49:58;;;;;;;20.90;10.40;;;;;;;;;;5071286;28;20936;-75
2021/01/10 07:52:42;;;;;;;26.80;9.77;;;;;;;;;;5070017;28;20431;-74
2021/01/10 07:55:20;;;;;;;24.80;11.00;;;;;;;;;;5067771;28;20564;-74
2021/01/10 07:57:46;;;;;;;32.23;12.07;;;;;;;;;;5052166;28;20410;-74
2021/01/10 08:00:15;;;;;;;28.33;12.90;;;;;;;;;;5060311;28;20433;-76
2021/01/10 08:02:44;;;;;;;28.97;12.57;;;;;;;;;;5049619;28;20423;-73
2021/01/10 08:05:16;;;;;;;25.60;12.97;;;;;;;;;;5054926;28;21813;-75
2021/01/10 08:08:12;;;;;;;33.70;12.57;;;;;;;;;;5054380;28;20428;-73
2021/01/10 08:10:48;;;;;;;32.70;13.03;;;;;;;;;;5043100;28;20459;-74
2021/01/10 08:13:29;;;;;;;27.97;11.70;;;;;;;;;;5050060;28;20436;-74
2021/01/10 08:16:18;;;;;;;29.77;11.83;;;;;;;;;;5057733;28;20441;-74
2021/01/10 08:18:44;;;;;;;30.23;12.67;;;;;;;;;;5060333;28;20525;-74
2021/01/10 08:21:12;;;;;;;25.40;13.40;;;;;;;;;;5066263;28;20426;-74
2021/01/10 08:23:39;;;;;;;41.87;14.17;;;;;;;;;;5060241;28;20472;-75
2021/01/10 08:26:09;;;;;;;28.87;13.40;;;;;;;;;;5061143;28;20535;-73
2021/01/10 08:28:36;;;;;;;29.33;14.23;;;;;;;;;;5064840;28;20513;-74
2021/01/10 08:31:06;;;;;;;29.10;13.63;;;;;;;;;;5069139;28;20507;-74
2021/01/10 08:33:32;;;;;;;48.67;19.30;;;;;;;;;;5067154;28;20441;-75
2021/01/10 08:36:10;;;;;;;34.43;14.33;;;;;;;;;;5074867;28;20885;-75
2021/01/10 08:38:37;;;;;;;36.50;15.40;;;;;;;;;;5065518;28;20454;-73
2021/01/10 08:41:03;;;;;;;27.10;11.67;;;;;;;;;;5055650;28;20442;-72
2021/01/10 08:43:29;;;;;;;25.83;11.97;;;;;;;;;;5053957;28;20438;-72
2021/01/10 08:45:55;;;;;;;30.67;15.07;;;;;;;;;;5061951;28;20427;-72
2021/01/10 08:48:21;;;;;;;34.60;16.90;;;;;;;;;;5068105;28;20426;-73
2021/01/10 08:50:47;;;;;;;24.23;14.10;;;;;;;;;;5070686;28;20462;-71
2021/01/10 08:53:13;;;;;;;32.17;13.57;;;;;;;;;;5065759;28;20427;-71
2021/01/10 08:55:40;;;;;;;27.13;12.97;;;;;;;;;;5075570;28;20467;-75
2021/01/10 08:58:07;;;;;;;27.93;13.83;;;;;;;;;;5058261;28;20426;-72
2021/01/10 09:00:34;;;;;;;21.80;11.33;;;;;;;;;;5056986;28;20781;-72
2021/01/10 09:03:12;;;;;;;32.53;13.37;;;;;;;;;;5056873;28;20435;-73
2021/01/10 09:05:39;;;;;;;21.97;12.20;;;;;;;;;;5064595;28;20422;-75
2021/01/10 09:08:07;;;;;;;26.30;14.00;;;;;;;;;;5068985;28;20418;-74
2021/01/10 09:10:37;;;;;;;24.73;12.90;;;;;;;;;;5057473;28;20465;-75
2021/01/10 09:13:05;;;;;;;31.60;13.90;;;;;;;;;;5057692;28;20910;-72
2021/01/10 09:15:34;;;;;;;28.80;13.60;;;;;;;;;;5060281;28;20437;-71
2021/01/10 09:18:06;;;;;;;29.00;13.83;;;;;;;;;;5057751;28;20414;-73
2021/01/10 09:20:33;;;;;;;27.00;13.30;;;;;;;;;;5034902;28;20416;-73
2021/01/10 09:22:59;;;;;;;25.80;13.13;;;;;;;;;;5050191;28;20467;-71
2021/01/10 09:25:25;;;;;;;30.80;14.83;;;;;;;;;;5054147;28;21000;-71
2021/01/10 09:28:12;;;;;;;35.57;14.77;;;;;;;;;;5054687;28;20422;-74
2021/01/10 09:30:43;;;;;;;30.70;15.77;;;;;;;;;;5043744;28;20481;-73
2021/01/10 09:33:09;;;;;;;34.60;15.80;;;;;;;;;;5071034;28;20956;-74
2021/01/10 09:35:36;;;;;;;26.83;13.27;;;;;;;;;;5053737;28;20486;-73
2021/01/10 09:38:07;;;;;;;37.60;15.93;;;;;;;;;;5054548;28;20410;-73
2021/01/10 09:40:33;;;;;;;30.03;14.33;;;;;;;;;;5061304;28;20414;-73
2021/01/10 09:42:59;;;;;;;22.83;14.50;;;;;;;;;;5073098;28;20450;-73
2021/01/10 09:45:33;;;;;;;27.07;15.03;;;;;;;;;;5038614;28;20468;-73
2021/01/10 09:47:59;;;;;;;26.23;13.00;;;;;;;;;;5058461;28;20462;-73
2021/01/10 09:50:25;;;;;;;37.80;14.63;;;;;;;;;;5053715;28;20450;-72
2021/01/10 09:52:52;;;;;;;23.57;13.23;;;;;;;;;;5052673;28;20453;-73
2021/01/10 09:55:27;;;;;;;24.27;13.20;;;;;;;;;;5053481;28;20469;-71
2021/01/10 09:57:54;;;;;;;37.13;15.60;;;;;;;;;;5064178;28;20910;-72
2021/01/10 10:00:20;;;;;;;29.53;14.00;;;;;;;;;;5051741;28;20437;-73
2021/01/10 10:02:47;;;;;;;23.77;12.10;;;;;;;;;;5053971;28;20436;-73
2021/01/10 10:05:22;;;;;;;33.83;15.13;;;;;;;;;;5064736;28;20454;-73
2021/01/10 10:07:52;;;;;;;34.50;14.73;;;;;;;;;;5074001;28;20420;-72
2021/01/10 10:10:19;;;;;;;33.20;13.73;;;;;;;;;;5054863;28;20438;-72
2021/01/10 10:12:54;;;;;;;31.13;14.10;;;;;;;;;;5059193;28;20422;-72
2021/01/10 10:15:21;;;;;;;36.15;18.38;;;;;;;;;;5057260;28;20481;-76
2021/01/10 10:17:47;;;;;;;36.73;16.10;;;;;;;;;;5052832;28;20257;-75
2021/01/10 10:20:13;;;;;;;39.10;17.93;;;;;;;;;;5059772;28;20427;-72
2021/01/10 10:22:39;;;;;;;29.43;15.27;;;;;;;;;;5067482;28;20415;-75
2021/01/10 10:25:07;;;;;;;28.73;13.70;;;;;;;;;;5050580;28;20956;-75
2021/01/10 10:27:33;;;;;;;28.37;15.40;;;;;;;;;;5058157;28;20749;-75
2021/01/10 10:29:59;;;;;;;33.00;15.17;;;;;;;;;;5059086;28;20423;-73
2021/01/10 10:32:26;;;;;;;27.67;13.43;;;;;;;;;;5071126;28;20533;-73
2021/01/10 10:34:52;;;;;;;30.00;14.93;;;;;;;;;;5060830;28;20465;-75
2021/01/10 10:37:19;;;;;;;29.70;14.33;;;;;;;;;;5064414;28;20429;-74
2021/01/10 10:39:45;;;;;;;31.13;14.10;;;;;;;;;;5055722;28;20439;-73
2021/01/10 10:42:15;;;;;;;29.23;14.93;;;;;;;;;;5052434;28;20803;-73
2021/01/10 10:44:41;;;;;;;39.33;15.30;;;;;;;;;;5048464;28;20466;-72
2021/01/10 10:47:11;;;;;;;33.00;14.47;;;;;;;;;;5055381;28;20429;-71
2021/01/10 10:49:37;;;;;;;28.33;14.63;;;;;;;;;;5053649;28;20438;-71
2021/01/10 10:52:07;;;;;;;33.67;16.70;;;;;;;;;;5053480;28;20454;-73
2021/01/10 10:54:33;;;;;;;38.73;17.40;;;;;;;;;;5042067;28;20485;-73
2021/01/10 10:56:59;;;;;;;32.23;17.13;;;;;;;;;;5033395;28;20437;-73
2021/01/10 10:59:26;;;;;;;30.60;16.50;;;;;;;;;;5046778;28;20515;-73
2021/01/10 11:01:52;;;;;;;28.60;14.07;;;;;;;;;;5052867;28;20798;-73
2021/01/10 11:04:18;;;;;;;30.83;14.67;;;;;;;;;;5053149;28;20481;-73
2021/01/10 11:06:44;;;;;;;39.83;15.53;;;;;;;;;;5057016;28;20430;-73
2021/01/10 11:09:10;;;;;;;33.47;15.87;;;;;;;;;;5052633;28;20434;-73
2021/01/10 11:11:47;;;;;;;26.90;14.73;;;;;;;;;;5033440;28;20458;-73
2021/01/10 11:14:14;;;;;;;39.63;15.80;;;;;;;;;;5045104;28;20461;-73
2021/01/10 11:16:43;;;;;;;23.90;13.13;;;;;;;;;;5052511;28;20424;-73
2021/01/10 11:19:09;;;;;;;32.47;14.87;;;;;;;;;;5052540;28;20430;-73
2021/01/10 11:21:36;;;;;;;24.67;12.77;;;;;;;;;;5056333;28;20923;-73
2021/01/10 11:24:03;;;;;;;27.97;14.20;;;;;;;;;;5050902;28;21019;-73
2021/01/10 11:26:29;;;;;;;28.03;15.80;;;;;;;;;;5052894;28;20413;-73
2021/01/10 11:28:56;;;;;;;29.17;14.27;;;;;;;;;;5061357;28;20477;-73
2021/01/10 11:31:25;;;;;;;33.70;14.17;;;;;;;;;;5052564;28;20531;-73
2021/01/10 11:33:51;;;;;;;25.83;13.90;;;;;;;;;;5053062;28;20511;-73
2021/01/10 11:36:21;;;;;;;30.60;13.40;;;;;;;;;;5046679;28;20465;-73
2021/01/10 11:38:49;;;;;;;30.30;15.30;;;;;;;;;;5043416;28;20798;-73
2021/01/10 11:41:15;;;;;;;26.73;13.53;;;;;;;;;;5056675;28;21027;-73
2021/01/10 11:43:41;;;;;;;26.10;13.80;;;;;;;;;;5055528;28;20904;-73
2021/01/10 11:46:07;;;;;;;25.70;13.93;;;;;;;;;;5057688;28;20408;-73
2021/01/10 11:48:35;;;;;;;27.23;14.83;;;;;;;;;;5055881;28;20518;-73
2021/01/10 11:51:01;;;;;;;33.23;12.87;;;;;;;;;;5068421;28;20449;-73
2021/01/10 11:53:27;;;;;;;28.40;14.27;;;;;;;;;;5056513;28;20786;-73
2021/01/10 11:55:54;;;;;;;23.43;12.80;;;;;;;;;;5057620;28;20453;-73
2021/01/10 11:58:20;;;;;;;24.77;13.07;;;;;;;;;;5049414;28;20418;-73
2021/01/10 12:00:49;;;;;;;21.20;12.57;;;;;;;;;;5061526;28;20773;-73
2021/01/10 12:03:15;;;;;;;29.60;14.40;;;;;;;;;;5066016;28;20435;-78
2021/01/10 12:05:41;;;;;;;20.70;12.43;;;;;;;;;;5072891;28;20911;-75
2021/01/10 12:08:07;;;;;;;28.93;14.40;;;;;;;;;;5066152;28;20453;-77
2021/01/10 12:10:34;;;;;;;27.17;14.43;;;;;;;;;;5058052;28;20491;-72
2021/01/10 12:13:03;;;;;;;22.43;11.50;;;;;;;;;;5056115;28;20797;-73
2021/01/10 12:15:29;;;;;;;19.30;12.50;;;;;;;;;;5058487;28;20440;-74
2021/01/10 12:17:55;;;;;;;22.47;11.70;;;;;;;;;;5074288;28;20489;-73
2021/01/10 12:20:21;;;;;;;24.13;13.37;;;;;;;;;;5061428;28;20553;-72
2021/01/10 12:22:47;;;;;;;26.80;12.80;;;;;;;;;;5060419;28;20418;-73
2021/01/10 12:25:13;;;;;;;21.87;12.93;;;;;;;;;;5055923;28;20787;-72
2021/01/10 12:27:39;;;;;;;21.10;12.00;;;;;;;;;;5055714;28;20392;-75
2021/01/10 12:30:05;;;;;;;25.43;11.80;;;;;;;;;;5055092;28;20898;-75
2021/01/10 12:32:41;;;;;;;21.13;12.37;;;;;;;;;;5075605;28;20509;-74
2021/01/10 12:35:09;;;;;;;23.57;13.30;;;;;;;;;;5059895;28;20478;-75
2021/01/10 12:37:35;;;;;;;20.83;12.90;;;;;;;;;;5059260;28;20793;-72
2021/01/10 12:40:01;;;;;;;20.00;11.23;;;;;;;;;;5063187;28;20426;-74
2021/01/10 12:42:27;;;;;;;27.77;12.13;;;;;;;;;;5058265;28;20405;-72
2021/01/10 12:44:53;;;;;;;17.20;10.93;;;;;;;;;;5064406;28;20989;-72
2021/01/10 12:47:19;;;;;;;24.50;12.50;;;;;;;;;;5073059;28;20787;-74
2021/01/10 12:49:46;;;;;;;23.70;13.13;;;;;;;;;;5063341;28;20430;-73
2021/01/10 12:52:12;;;;;;;26.27;12.37;;;;;;;;;;5055718;28;20483;-73
2021/01/10 12:54:38;;;;;;;22.10;11.07;;;;;;;;;;5057069;28;20952;-74
2021/01/10 12:57:04;;;;;;;25.70;11.20;;;;;;;;;;5055107;28;20399;-74
2021/01/10 12:59:30;;;;;;;22.03;13.00;;;;;;;;;;5055194;28;20418;-74
2021/01/10 13:01:56;;;;;;;24.93;12.53;;;;;;;;;;5069773;28;20481;-74
2021/01/10 13:04:22;;;;;;;29.50;12.43;;;;;;;;;;5055049;28;21133;-74
2021/01/10 13:06:48;;;;;;;30.47;14.67;;;;;;;;;;5054625;28;20424;-74
2021/01/10 13:09:14;;;;;;;30.77;14.83;;;;;;;;;;5052605;28;20422;-74
2021/01/10 13:11:40;;;;;;;28.30;13.37;;;;;;;;;;5074847;28;20457;-74
2021/01/10 13:14:07;;;;;;;30.73;14.30;;;;;;;;;;5064068;28;20438;-76
2021/01/10 13:16:33;;;;;;;27.70;13.30;;;;;;;;;;5055941;28;20787;-72
2021/01/10 13:19:02;;;;;;;26.33;12.87;;;19.90;99.90;;;;;;5054950;28;20406;-74
2021/01/10 13:21:28;;;;;;;27.93;14.73;;;;;;;;;;5057568;28;20790;-74
2021/01/10 13:23:54;;;;;;;29.80;13.93;;;0.20;99.90;;;;;;5060659;28;20843;-74
2021/01/10 13:26:20;;;;;;;25.70;14.40;;;-0.30;99.90;;;;;;5054103;28;20443;-74
2021/01/10 13:28:46;;;;;;;25.03;13.03;;;-0.50;99.90;;;;;;5054774;28;20491;-74
2021/01/10 13:31:12;;;;;;;33.90;15.73;;;-0.60;99.90;;;;;;5057272;28;20454;-73
2021/01/10 13:33:38;;;;;;;24.20;12.33;;;-0.70;99.90;;;;;;5063682;28;20450;-75
2021/01/10 13:36:06;;;;;;;23.73;12.70;;;-0.80;99.90;;;;;;5062557;28;20804;-75
2021/01/10 13:38:31;;;;;;;24.50;11.37;;;-0.90;99.90;;;;;;5054869;28;20437;-75
2021/01/10 13:40:57;;;;;;;21.90;13.20;;;;;;;;;;5064956;28;20938;-74
2021/01/10 13:43:23;;;;;;;26.17;12.53;;;;;;;;;;5072435;28;20207;-72
2021/01/10 13:45:50;;;;;;;25.00;13.03;;;;;;;;;;5059255;28;20437;-74
2021/01/10 13:48:16;;;;;;;28.10;13.77;;;-1.00;99.90;;;;;;5054533;28;20402;-74
2021/01/10 13:50:46;;;;;;;27.10;15.40;;;-1.20;99.90;;;;;;5060025;28;20816;-74
2021/01/10 13:53:12;;;;;;;25.97;14.10;;;-1.30;99.90;;;;;;5068352;28;20441;-75
2021/01/10 13:55:39;;;;;;;28.80;14.07;;;-1.20;99.90;;;;;;5049444;28;20444;-75
2021/01/10 13:58:05;;;;;;;26.67;12.47;;;-1.20;99.90;;;;;;5034063;28;20439;-74
2021/01/10 14:00:30;;;;;;;31.17;13.50;;;-1.20;99.90;;;;;;5051586;28;20903;-74
2021/01/10 14:02:56;;;;;;;25.13;12.63;;;-1.20;99.90;;;;;;5053254;28;20461;-72
2021/01/10 14:05:22;;;;;;;27.30;14.20;;;-1.20;99.90;;;;;;5068064;28;20199;-74
2021/01/10 14:07:48;;;;;;;27.80;13.87;;;-1.20;99.90;;;;;;5054019;28;20171;-74
2021/01/10 14:10:14;;;;;;;30.03;13.87;;;-1.30;99.90;;;;;;5055591;28;20512;-75
2021/01/10 14:12:43;;;;;;;26.23;13.20;;;-1.30;99.90;;;;;;5062690;28;20520;-74
2021/01/10 14:15:10;;;;;;;25.00;12.50;;;-1.40;99.90;;;;;;5068328;28;20227;-74
2021/01/10 14:17:36;;;;;;;23.60;12.60;;;-1.40;99.90;;;;;;5070530;28;20512;-75